Springdale, Ohio
Current Conditions -  °F | °C
As of 12:53 PM on Monday 22 Dec 2014 (Local Time) from KHAO Reporting Station
Few Clouds Few Clouds  
Wind Chill: 49°   Ceiling: Unl
Heat Index: 49°   Visibility: 10mi
Dew Point: 35°   Wind: 3mph
Humidity: 59%   Direction: 120°ESE
Pressure: 29.93"   Gusts: NA
Location:  39.286°N, 84.4668°W
Report Text: KHAO 221753Z AUTO 12003KT 10SM FEW100 09/02 A2993 RMK AO2 SLP139 T00940017 10094 21006 58029
Loading
Personal Weather Stations






























Interactive Weather Map New forecast layout! Learn more

10-Day Weather Forecast

Advertisements
Track Severe Weather on mobile